tititudorancea.com
Station Historical Data
Daily Summary for February 1, 2018 Units:  Metric    English   Both
« Previous Day
Next Day »
Daily Weekly Monthly Yearly Custom
  High: Low: Average:
Temperature: -17.8 °C 8.4 °C 12.4 °C
Dew Point: -17.8 °C 4.7 °C 6.2 °C
Humidity: Humidity % 40 % 67 %
Wind Speed: 0 km/h 6.4 km/h 12.1 km/h
Wind Gust: 0 km/h - -
Wind:- - South
Pressure: 0 hPa 1013.4 hPa -
Precipitation: 0 mm    
Historical Graphs
 
 
Ararat weather Find more about Weather in Ararat, AU


 



 


Tabular Data for February 1, 2018
Time Temperature Dew Point Pressure Wind Wind Speed Wind Gust Humidity Rainfall Rate (Hourly)
-17.8 °C -17.8 °C 0 hPa Calm     Humidity % 0 mm
01:46 10.9 °C 5.8 °C 1015.5 hPa SSE 10.6 km/h 16.1 km/h 71 % 0 mm
01:51 10.7 °C 5.7 °C 1015.5 hPa South 8.4 km/h 14.8 km/h 71 % 0 mm
01:56 10.6 °C 5.8 °C 1015.5 hPa South 7.6 km/h 11.1 km/h 72 % 0 mm
02:01 10.5 °C 5.7 °C 1015.5 hPa North 11.7 km/h 18.5 km/h 72 % 0 mm
02:06 10.3 °C 5.5 °C 1015.5 hPa SSE 13.5 km/h 18.5 km/h 72 % 0 mm
02:11 10.2 °C 5.4 °C 1015.1 hPa South 9.8 km/h 14.8 km/h 72 % 0 mm
02:16 10.1 °C 5.5 °C 1015.1 hPa South 10.5 km/h 18.5 km/h 73 % 0 mm
02:21 9.9 °C 5.3 °C 1015.1 hPa South 9.8 km/h 13 km/h 73 % 0 mm
02:26 9.8 °C 5.2 °C 1015.1 hPa North 10.5 km/h 13 km/h 73 % 0 mm
02:31 9.7 °C 5.3 °C 1015.1 hPa South 11.1 km/h 14.8 km/h 74 % 0 mm
02:36 9.6 °C 5.2 °C 1015.1 hPa South 7.7 km/h 16.1 km/h 74 % 0 mm
02:41 9.6 °C 5.2 °C 1015.1 hPa South 9.2 km/h 14.8 km/h 74 % 0 mm
02:46 9.5 °C 5.3 °C 1015.1 hPa South 11.4 km/h 16.1 km/h 75 % 0 mm
02:51 9.4 °C 5.2 °C 1015.1 hPa South 7.4 km/h 11.1 km/h 75 % 0 mm
02:56 9.4 °C 5.2 °C 1015.1 hPa South 10.1 km/h 13 km/h 75 % 0 mm
03:02 9.3 °C 5.1 °C 1015.1 hPa South 9.5 km/h 16.7 km/h 75 % 0 mm
03:07 9.3 °C 5.3 °C 1014.8 hPa South 11.7 km/h 20.4 km/h 76 % 0 mm
03:12 9.3 °C 5.3 °C 1014.8 hPa North 7.2 km/h 12.9 km/h 76 % 0 mm
03:17 9.2 °C 5.2 °C 1014.8 hPa North 13.4 km/h 20.4 km/h 76 % 0 mm
03:22 9.2 °C 5.2 °C 1014.8 hPa South 8.4 km/h 16.7 km/h 76 % 0 mm
03:27 9.1 °C 5.1 °C 1014.8 hPa North 8.7 km/h 13 km/h 76 % 0 mm
03:32 9 °C 5.2 °C 1014.4 hPa South 12.7 km/h 18.5 km/h 77 % 0 mm
03:37 8.9 °C 5.1 °C 1014.4 hPa South 9.5 km/h 12.9 km/h 77 % 0 mm
03:42 8.8 °C 5 °C 1014.4 hPa SSW 12.2 km/h 18.5 km/h 77 % 0 mm
03:47 8.8 °C 5.2 °C 1014.4 hPa SSW 8.4 km/h 14.8 km/h 78 % 0 mm
03:52 8.8 °C 5.2 °C 1014.4 hPa South 9.8 km/h 16.7 km/h 78 % 0 mm
03:57 8.8 °C 5 °C 1014.4 hPa South 6.8 km/h 9.3 km/h 77 % 0 mm
04:02 8.8 °C 5 °C 1014.4 hPa South 11.3 km/h 16.7 km/h 77 % 0 mm
04:07 8.8 °C 5 °C 1014.4 hPa SSW 8.9 km/h 14.8 km/h 77 % 0 mm
04:12 8.9 °C 5.1 °C 1014.4 hPa South 10.1 km/h 18.5 km/h 77 % 0 mm
04:17 8.8 °C 5 °C 1014.4 hPa South 10.6 km/h 16.7 km/h 77 % 0 mm
04:22 8.8 °C 5 °C 1014.8 hPa South 12.9 km/h 18.5 km/h 77 % 0 mm
04:27 8.8 °C 5 °C 1014.8 hPa South 9.8 km/h 13 km/h 77 % 0 mm
04:32 8.8 °C 4.8 °C 1014.4 hPa South 10.1 km/h 16.7 km/h 76 % 0 mm
04:37 8.8 °C 4.9 °C 1014.4 hPa South 8.9 km/h 13 km/h 77 % 0 mm
04:42 8.8 °C 4.9 °C 1014.4 hPa South 14.5 km/h 18.5 km/h 77 % 0 mm
04:47 8.8 °C 4.9 °C 1014.4 hPa North 9.5 km/h 18.5 km/h 77 % 0 mm
04:53 8.7 °C 4.9 °C 1014.4 hPa South 11.1 km/h 14.5 km/h 77 % 0 mm
04:58 8.7 °C 4.9 °C 1014.4 hPa South 9.3 km/h 18.5 km/h 77 % 0 mm
05:02 8.7 °C 4.8 °C 1014.4 hPa South 11.3 km/h 18.5 km/h 77 % 0 mm
05:08 8.6 °C 4.8 °C 1014.4 hPa North 10.8 km/h 13 km/h 77 % 0 mm
05:13 8.6 °C 4.8 °C 1014.4 hPa South 9.5 km/h 18.5 km/h 77 % 0 mm
05:18 8.5 °C 4.7 °C 1014.4 hPa SSW 12.7 km/h 18.5 km/h 77 % 0 mm
05:23 8.4 °C 4.7 °C 1014.8 hPa South 12.2 km/h 16.7 km/h 77 % 0 mm
05:28 8.4 °C 4.8 °C 1014.8 hPa North 9.7 km/h 14.8 km/h 78 % 0 mm
05:33 8.5 °C 4.9 °C 1014.8 hPa South 12.2 km/h 18.5 km/h 78 % 0 mm
05:38 8.5 °C 4.9 °C 1014.8 hPa South 13 km/h 20.4 km/h 78 % 0 mm
05:43 8.6 °C 5 °C 1015.1 hPa SSW 9.5 km/h 13 km/h 78 % 0 mm
05:48 8.6 °C 5 °C 1015.1 hPa South 6.4 km/h 13 km/h 78 % 0 mm
05:53 8.6 °C 5 °C 1014.8 hPa South 9.8 km/h 14.5 km/h 78 % 0 mm
05:58 8.7 °C 5.1 °C 1015.1 hPa South 8.4 km/h 14.8 km/h 78 % 0 mm
06:03 8.7 °C 5.1 °C 1015.1 hPa South 10 km/h 18.5 km/h 78 % 0 mm
06:08 8.9 °C 5.1 °C 1015.1 hPa South 11.6 km/h 16.7 km/h 77 % 0 mm
06:13 8.9 °C 5.1 °C 1015.1 hPa South 10.1 km/h 14.8 km/h 77 % 0 mm
06:18 9 °C 5.2 °C 1015.1 hPa South 11.7 km/h 16.7 km/h 77 % 0 mm
06:23 9.1 °C 5.1 °C 1015.1 hPa South 13.5 km/h 20.4 km/h 76 % 0 mm
06:28 9.1 °C 5.1 °C 1015.1 hPa South 10.5 km/h 18.5 km/h 76 % 0 mm
06:33 9.1 °C 5.1 °C 1015.5 hPa South 13.2 km/h 22.2 km/h 76 % 0 mm
06:38 9.2 °C 5.2 °C 1015.5 hPa South 15.4 km/h 20.4 km/h 76 % 0 mm
06:43 9.2 °C 5.2 °C 1015.5 hPa South 14.5 km/h 22.2 km/h 76 % 0 mm
06:48 9.3 °C 5.3 °C 1015.5 hPa North 12.1 km/h 18.5 km/h 76 % 0 mm
06:53 9.3 °C 5.3 °C 1015.5 hPa South 12.2 km/h 22.2 km/h 76 % 0 mm
06:58 9.3 °C 5.3 °C 1015.5 hPa South 9.2 km/h 14.8 km/h 76 % 0 mm
07:03 9.4 °C 5.4 °C 1015.5 hPa South 13 km/h 18.5 km/h 76 % 0 mm
07:08 9.5 °C 5.5 °C 1015.5 hPa South 12.2 km/h 20.4 km/h 76 % 0 mm
07:13 9.6 °C 5.6 °C 1015.5 hPa South 14.5 km/h 18.5 km/h 76 % 0 mm
07:18 9.7 °C 5.7 °C 1015.5 hPa SSE 14.2 km/h 18.5 km/h 76 % 0 mm
07:23 9.8 °C 5.6 °C 1015.5 hPa South 14.6 km/h 18.5 km/h 75 % 0 mm
07:28 9.9 °C 5.7 °C 1015.5 hPa South 11.3 km/h 13 km/h 75 % 0 mm
07:33 10 °C 5.8 °C 1015.8 hPa SSW 14.5 km/h 18.5 km/h 75 % 0 mm
07:38 10.1 °C 5.9 °C 1015.8 hPa SSW 11.1 km/h 29.6 km/h 75 % 0 mm
07:43 10.2 °C 5.9 °C 1015.8 hPa South 14.2 km/h 20.4 km/h 75 % 0 mm
13:46 20.7 °C 8 °C 1015.5 hPa SE 19.3 km/h 33.3 km/h 44 % 0 mm
18:15 21.9 °C 7.7 °C 1013.4 hPa SE 17.2 km/h 25.9 km/h 40 % 0 mm
18:47 21.5 °C 7.3 °C 1013.4 hPa ESE 16.3 km/h 29.6 km/h 40 % 0 mm
18:52 21.4 °C 7.3 °C 1013.4 hPa SE 22.2 km/h 31.5 km/h 40 % 0 mm
18:57 21.2 °C 7.4 °C 1013.4 hPa SE 21.9 km/h 33.3 km/h 41 % 0 mm
19:02 21.1 °C 7.7 °C 1013.8 hPa SSE 17.7 km/h 24.1 km/h 42 % 0 mm
19:07 21 °C 7.6 °C 1013.8 hPa SSE 14.8 km/h 22.2 km/h 42 % 0 mm
19:12 20.9 °C 7.2 °C 1013.8 hPa SE 16.7 km/h 24.1 km/h 41 % 0 mm
19:17 20.7 °C 7.3 °C 1013.8 hPa SSE 18 km/h 22.2 km/h 42 % 0 mm
19:22 20.6 °C 7.2 °C 1013.8 hPa SE 23.2 km/h 31.5 km/h 42 % 0 mm
19:23 20.6 °C 7.2 °C 1013.8 hPa SE 23.5 km/h 31.5 km/h 42 % 0 mm
19:28 20.4 °C 7.1 °C 1014.1 hPa SE 20.8 km/h 31.5 km/h 42 % 0 mm
19:41 20.1 °C 7.4 °C 1014.1 hPa SE 31.5 km/h 31.5 km/h 44 % 0 mm
19:46 20 °C 7.4 °C 1014.1 hPa SE 11.9 km/h 18.5 km/h 44 % 0 mm
19:51 19.7 °C 7.1 °C 1014.4 hPa SE 16.1 km/h 33.3 km/h 44 % 0 mm
19:56 19.5 °C 7.2 °C 1014.4 hPa SSE 21.2 km/h 22.5 km/h 45 % 0 mm
20:01 19.3 °C 7.4 °C 1014.4 hPa SSE 14.8 km/h 27.8 km/h 46 % 0 mm
20:06 19.2 °C 7.3 °C 1014.4 hPa SSE 10.6 km/h 20.4 km/h 46 % 0 mm
20:11 19 °C 7.1 °C 1014.4 hPa SE 15.8 km/h 24.1 km/h 46 % 0 mm
20:16 18.8 °C 6.9 °C 1014.4 hPa SE 21.7 km/h 22.5 km/h 46 % 0 mm
20:21 18.4 °C 6.9 °C 1014.4 hPa SE 15 km/h 20.4 km/h 47 % 0 mm
20:26 18.2 °C 6.9 °C 1014.4 hPa SE 17.2 km/h 24.1 km/h 48 % 0 mm
20:31 17.8 °C 6.9 °C 1014.8 hPa SE 14.5 km/h 22.5 km/h 49 % 0 mm
20:36 17.6 °C 7.1 °C 1014.8 hPa SSE 15.3 km/h 24.1 km/h 50 % 0 mm
20:41 17.4 °C 7.2 °C 1014.8 hPa SE 16.9 km/h 29.6 km/h 51 % 0 mm
20:46 17.2 °C 7 °C 1014.8 hPa SSE 15.6 km/h 27.8 km/h 51 % 0 mm
20:51 17.1 °C 7.1 °C 1014.8 hPa SE 13.8 km/h 20.9 km/h 52 % 0 mm
20:56 16.8 °C 7.2 °C 1015.1 hPa SSE 14.8 km/h 20.4 km/h 53 % 0 mm
21:01 16.7 °C 7.3 °C 1015.1 hPa SE 14 km/h 20.4 km/h 54 % 0 mm
21:06 16.5 °C 7.2 °C 1015.1 hPa SE 13 km/h 18.5 km/h 54 % 0 mm
21:11 16.3 °C 7.2 °C 1015.1 hPa SE 11.4 km/h 16.7 km/h 55 % 0 mm
21:16 16.2 °C 7.4 °C 1015.1 hPa SE 12.9 km/h 18.5 km/h 56 % 0 mm
21:21 16 °C 7.5 °C 1015.1 hPa SE 12.9 km/h 20.4 km/h 57 % 0 mm
21:26 15.8 °C 7.5 °C 1015.1 hPa SE 8.9 km/h 22.2 km/h 58 % 0 mm
21:31 15.6 °C 7.4 °C 1015.5 hPa SE 9.3 km/h 18.5 km/h 58 % 0 mm
21:36 15.5 °C 7.5 °C 1015.5 hPa SSE 10.5 km/h 14.8 km/h 59 % 0 mm
21:41 15.3 °C 7.6 °C 1015.5 hPa SE 10.1 km/h 18.5 km/h 60 % 0 mm
21:46 15.2 °C 7.7 °C 1015.5 hPa SSE 11.1 km/h 16.7 km/h 61 % 0 mm
21:51 15.1 °C 7.7 °C 1015.8 hPa SSE 10.3 km/h 18.5 km/h 61 % 0 mm
21:56 14.9 °C 7.7 °C 1015.8 hPa SSE 10.1 km/h 14.8 km/h 62 % 0 mm
22:01 14.8 °C 7.8 °C 1015.8 hPa SSE 10.6 km/h 16.7 km/h 63 % 0 mm
22:06 14.6 °C 7.9 °C 1015.8 hPa SSE 10.3 km/h 16.7 km/h 64 % 0 mm
22:11 14.4 °C 7.9 °C 1015.8 hPa SSE 10 km/h 14.8 km/h 65 % 0 mm
22:16 14.3 °C 8.2 °C 1015.8 hPa SSE 11.6 km/h 20.4 km/h 67 % 0 mm
22:26 14.1 °C 8.2 °C 1016.1 hPa SSE 11.4 km/h 16.7 km/h 68 % 0 mm
22:31 13.9 °C 8.3 °C 1016.1 hPa SSE 10.3 km/h 11.3 km/h 69 % 0 mm
22:36 13.8 °C 8.2 °C 1016.1 hPa SSE 14.3 km/h 24.1 km/h 69 % 0 mm
22:41 13.7 °C 8.3 °C 1016.5 hPa SE 9.2 km/h 14.8 km/h 70 % 0 mm
22:46 13.6 °C 8.2 °C 1016.5 hPa North 10.5 km/h 18.5 km/h 70 % 0 mm
22:51 13.5 °C 8.3 °C 1016.5 hPa SSE 8.7 km/h 16.7 km/h 71 % 0 mm
22:56 13.4 °C 8.2 °C 1016.5 hPa SSE 8.2 km/h 11.3 km/h 71 % 0 mm
23:01 13.2 °C 8.3 °C 1016.5 hPa SSE 10.3 km/h 16.7 km/h 72 % 0 mm
23:06 13.1 °C 8.2 °C 1016.5 hPa North 10.6 km/h 16.7 km/h 72 % 0 mm
23:11 13 °C 8.3 °C 1016.5 hPa SSE 8.9 km/h 16.7 km/h 73 % 0 mm
23:16 12.8 °C 8.1 °C 1016.5 hPa SSE 7.9 km/h 13 km/h 73 % 0 mm
23:21 12.7 °C 8.2 °C 1016.5 hPa SSE 9.3 km/h 16.7 km/h 74 % 0 mm
23:26 12.6 °C 8.1 °C 1016.5 hPa South 7.7 km/h 13 km/h 74 % 0 mm
23:31 12.6 °C 8.2 °C 1016.5 hPa North 12.4 km/h 18.5 km/h 75 % 0 mm
23:36 12.4 °C 8.1 °C 1016.5 hPa North 9.3 km/h 16.7 km/h 75 % 0 mm
23:41 12.4 °C 8.3 °C 1016.5 hPa SSE 10 km/h 10 km/h 76 % 0 mm
23:46 12.3 °C 8.2 °C 1016.5 hPa SSE 11.3 km/h 14.8 km/h 76 % 0 mm
23:52 12.2 °C 8.3 °C 1016.5 hPa SSE 11.6 km/h 18.5 km/h 77 % 0 mm
23:57 12.1 °C 8.3 °C 1016.1 hPa SSE 10.1 km/h 14.8 km/h 78 % 0 mm
Ararat Weather
Compliments of Weather Underground - 1.5 mb
Click here to send mail.


ABOUT

Live weather data from Ararat, Victoria, Australia, 3377
Data uploaded from Cumulus every 5 minutes to Weather Underground.
This site then downloads the raw data for formatting and display.
Metric and imperial data can be displayed. Graphs and historical data available.
Includes Sun and Moon times and rain image live from BOM.

Check out Ararat Weather on Facebook, Twitter and Google +

Help support ongoing costs by checking out the ads





Follow @AraratWeather